Time;durP1;ratioP1;P1;durP2;ratioP2;P2;SDS_P1;SDS_P2;PMS_P1;PMS_P2;Temp;Humidity;BMP_temperature;BMP_pressure;BME280_temperature;BME280_humidity;BME280_pressure;Samples;Min_cycle;Max_cycle;Signal;HPM_P1;HPM_P2
2022/04/29 00:00:39;;;;;;;15.90;8.18;;;;;;;7.58;90.39;67616.75;6034972;23;20046;-86
2022/04/29 00:03:09;;;;;;;13.05;7.90;;;;;;;7.71;89.95;67630.34;6036849;23;20051;-87
2022/04/29 00:05:36;;;;;;;15.77;8.20;;;;;;;7.63;89.96;67622.44;6059171;23;20046;-86
2022/04/29 00:08:05;;;;;;;17.75;8.27;;;;;;;7.55;90.21;67612.81;6035518;23;20022;-88
2022/04/29 00:10:31;;;;;;;13.85;8.70;;;;;;;7.52;90.55;67614.72;6031980;23;20102;-86
2022/04/29 00:12:59;;;;;;;12.55;7.95;;;;;;;7.58;90.53;67616.19;6033472;23;20022;-86
2022/04/29 00:15:24;;;;;;;12.48;7.93;;;;;;;7.53;90.22;67615.84;6032006;23;20018;-86
2022/04/29 00:17:50;;;;;;;15.02;8.88;;;;;;;7.43;91.13;67602.44;6034223;23;20019;-86
2022/04/29 00:20:15;;;;;;;16.48;9.43;;;;;;;7.43;91.08;67602.44;6035990;23;20018;-86
2022/04/29 00:22:41;;;;;;;15.23;8.38;;;;;;;7.33;91.54;67594.31;6032134;23;20036;-86
2022/04/29 00:25:08;;;;;;;15.63;9.00;;;;;;;7.27;92.36;67587.53;6037155;23;20460;-85
2022/04/29 00:27:33;;;;;;;14.65;9.10;;;;;;;7.32;91.77;67593.19;6036176;23;20018;-85
2022/04/29 00:29:59;;;;;;;15.60;9.85;;;;;;;7.28;92.33;67588.69;6039655;23;20668;-86
2022/04/29 00:32:25;;;;;;;16.45;9.73;;;;;;;7.29;91.97;67586.59;6036977;23;20026;-86
2022/04/29 00:34:50;;;;;;;18.70;9.73;;;;;;;7.21;92.58;67578.66;6039215;23;20019;-86
2022/04/29 00:37:17;;;;;;;13.85;9.65;;;;;;;7.19;92.61;67576.41;6062959;23;20782;-86
2022/04/29 00:39:42;;;;;;;15.10;9.75;;;;;;;7.23;92.38;67577.72;6041615;23;20018;-86
2022/04/29 00:42:16;;;;;;;17.55;9.50;;;;;;;7.17;92.81;67571.50;6062823;23;20018;-86
2022/04/29 00:44:43;;;;;;;16.83;9.63;;;;;;;7.22;92.67;67576.56;6064345;23;20098;-86
2022/04/29 00:47:10;;;;;;;16.77;9.48;;;;;;;;;;6041215;23;20600;-87
2022/04/29 00:49:36;;;;;;;17.27;10.60;;;;;;;7.11;93.04;67564.72;6065669;23;20022;-86
2022/04/29 00:52:02;;;;;;;17.08;9.38;;;;;;;7.20;92.77;67579.63;6043195;23;20033;-86
2022/04/29 00:54:36;;;;;;;16.85;10.52;;;;;;;7.23;92.30;67583.00;6041011;23;20027;-87
2022/04/29 00:57:06;;;;;;;18.80;9.60;;;;;;;7.10;93.03;67563.00;6071439;23;20027;-86
2022/04/29 00:59:42;;;;;;;20.10;10.43;;;;;;;7.06;93.33;67561.13;6068403;23;20452;-85
2022/04/29 01:02:09;;;;;;;17.02;10.85;;;;;;;7.13;93.12;67569.03;6069184;23;20019;-85
2022/04/29 01:04:43;;;;;;;18.25;11.10;;;;;;;7.05;93.29;67562.63;6071055;23;20018;-85
2022/04/29 01:07:09;;;;;;;16.45;10.52;;;;;;;6.99;93.97;67553.75;6062967;23;20059;-86
2022/04/29 01:09:34;;;;;;;21.70;11.60;;;;;;;6.92;94.17;67546.41;6058378;23;20015;-85
2022/04/29 01:11:59;;;;;;;21.70;11.25;;;;;;;;;;6056942;23;20035;-86
2022/04/29 01:14:25;;;;;;;23.85;11.73;;;;;;;6.90;94.70;67546.78;6059614;23;20034;-85
2022/04/29 01:16:50;;;;;;;16.77;11.60;;;;;;;6.82;95.17;67531.88;6031530;23;20330;-86
2022/04/29 01:19:15;;;;;;;15.85;11.15;;;;;;;6.76;95.39;67531.53;6060345;23;20019;-86
2022/04/29 01:21:42;;;;;;;16.02;11.15;;;;;;;6.83;94.88;67538.88;6060870;23;20015;-85
2022/04/29 01:24:08;;;;;;;20.80;11.38;;;;;;;;;;6058860;23;20036;-85
2022/04/29 01:26:34;;;;;;;17.08;12.73;;;;;;;6.72;95.66;67524.34;6059367;23;20109;-85
2022/04/29 01:29:01;;;;;;;18.23;11.70;;;;;;;6.71;95.57;67525.31;6061588;23;20152;-85
2022/04/29 01:31:29;;;;;;;20.15;12.60;;;;;;;6.67;96.06;67516.06;6057207;23;20023;-86
2022/04/29 01:33:56;;;;;;;24.00;13.60;;;;;;;6.62;96.34;67510.41;6061372;23;20365;-86
2022/04/29 01:36:22;;;;;;;20.77;11.95;;;;;;;6.57;96.67;67506.84;6032873;23;20607;-86
2022/04/29 01:38:47;;;;;;;21.08;11.73;;;;;;;6.57;96.62;67506.84;6034960;23;20025;-86
2022/04/29 01:41:13;;;;;;;20.00;11.73;;;;;;;6.50;96.92;67497.41;6061790;23;20074;-86
2022/04/29 01:43:38;;;;;;;21.70;11.20;;;;;;;6.42;97.71;67493.66;6033936;23;20026;-85
2022/04/29 01:46:04;;;;;;;22.92;13.68;;;;;;;6.49;97.06;67495.69;6062855;23;20022;-85
2022/04/29 01:48:29;;;;;;;20.75;12.13;;;;;;;6.47;97.39;67493.44;6035178;23;20019;-85
2022/04/29 01:50:55;;;;;;;19.83;12.98;;;;;;;;;;6061499;23;20019;-86
2022/04/29 01:53:20;;;;;;;18.77;12.98;;;;;;;6.37;98.18;67487.41;6059568;23;20029;-86
2022/04/29 01:55:46;;;;;;;22.52;13.75;;;;;;;6.37;98.14;67487.41;6060869;23;20047;-86
2022/04/29 01:58:11;;;;;;;28.77;14.07;;;;;;;6.41;98.01;67489.84;6061713;23;20098;-86
2022/04/29 02:00:37;;;;;;;24.00;13.93;;;;;;;6.36;98.13;67484.22;6061258;23;20015;-86
2022/04/29 02:03:03;;;;;;;24.85;12.18;;;;;;;6.35;97.94;67479.88;6037247;23;20049;-84
2022/04/29 02:05:28;;;;;;;26.00;14.43;;;;;;;6.33;98.28;67478.19;6035189;23;20023;-85
2022/04/29 02:07:54;;;;;;;22.70;13.00;;;;;;;6.29;98.72;67476.28;6063576;23;20356;-87
2022/04/29 02:10:20;;;;;;;21.85;12.95;;;;;;;6.30;98.36;67480.06;6065980;23;20018;-85
2022/04/29 02:12:46;;;;;;;27.63;14.75;;;;;;;6.25;99.06;67471.78;6036095;23;20405;-85
2022/04/29 02:15:12;;;;;;;24.45;12.98;;;;;;;6.28;98.85;67477.81;6065095;23;20596;-85
2022/04/29 02:17:38;;;;;;;24.23;12.65;;;;;;;6.22;98.84;67468.94;6036713;23;20026;-85
2022/04/29 02:20:03;;;;;;;23.92;13.15;;;;;;;6.21;99.14;67467.81;6038761;23;20028;-85
2022/04/29 02:22:29;;;;;;;26.33;13.60;;;;;;;6.24;99.02;67470.63;6062235;23;20030;-85
2022/04/29 02:24:54;;;;;;;20.23;12.48;;;;;;;6.22;99.08;67471.03;6063171;23;20499;-85
2022/04/29 02:27:19;;;;;;;25.63;14.63;;;;;;;6.16;99.56;67458.94;6062550;23;20014;-85
2022/04/29 02:29:45;;;;;;;21.92;13.88;;;;;;;6.13;100.00;67460.84;6038309;23;20015;-85
2022/04/29 02:32:10;;;;;;;19.38;13.82;;;;;;;6.13;99.80;67455.56;6062924;23;20022;-85
2022/04/29 02:34:36;;;;;;;26.02;12.77;;;;;;;6.14;99.72;67456.69;6061940;23;20054;-85
2022/04/29 02:37:02;;;;;;;23.58;13.02;;;;;;;6.11;99.60;67459.16;6066409;23;20026;-85
2022/04/29 02:39:28;;;;;;;24.35;14.02;;;;;;;6.09;99.46;67457.44;6040232;23;20019;-85
2022/04/29 02:41:54;;;;;;;25.52;12.93;;;;;;;6.09;99.67;67454.81;6063929;23;20022;-86
2022/04/29 02:44:20;;;;;;;25.23;13.90;;;;;;;6.01;99.95;67447.84;6035839;23;20015;-85
2022/04/29 02:49:29;;;;;;;23.15;12.60;;;;;;;5.92;100.00;67437.66;6062918;23;20059;-86
2022/04/29 02:51:55;;;;;;;22.13;13.63;;;;;;;5.93;100.00;67434.09;6064016;23;20049;-86
2022/04/29 02:54:20;;;;;;;22.67;13.63;;;;;;;;;;6061360;23;20082;-86
2022/04/29 02:56:45;;;;;;;25.00;13.52;;;;;;;;;;6061705;23;20015;-85
2022/04/29 02:59:11;;;;;;;26.50;13.65;;;;;;;5.88;100.00;67434.25;6039269;23;20536;-86
2022/04/29 03:01:36;;;;;;;29.73;15.25;;;;;;;5.91;100.00;67431.25;6063039;23;20496;-86
2022/04/29 03:04:02;;;;;;;24.40;14.20;;;;;;;5.84;100.00;67432.38;6066030;23;20011;-85
2022/04/29 03:06:28;;;;;;;25.10;13.27;;;;;;;5.90;100.00;67430.69;6066279;23;20015;-87
2022/04/29 03:08:53;;;;;;;25.30;14.13;;;;;;;5.93;100.00;67438.78;6037134;23;20489;-88
2022/04/29 03:11:19;;;;;;;26.20;14.27;;;;;;;5.82;100.00;67422.19;6037452;23;20469;-87
2022/04/29 03:13:44;;;;;;;28.77;14.38;;;;;;;;;;6044264;23;20038;-87
2022/04/29 03:16:09;;;;;;;22.92;13.32;;;;;;;5.81;100.00;67426.34;6060253;23;20007;-86
2022/04/29 03:18:35;;;;;;;28.38;13.32;;;;;;;5.80;100.00;67425.22;6080787;23;20535;-85
2022/04/29 03:21:03;;;;;;;23.75;13.18;;;;;;;5.80;100.00;67427.28;6038093;23;20298;-86
2022/04/29 03:23:28;;;;;;;23.15;13.98;;;;;;;5.78;100.00;67425.03;6035994;23;20098;-86
2022/04/29 03:25:53;;;;;;;24.15;12.45;;;;;;;5.79;100.00;67421.44;6037727;23;20066;-86
2022/04/29 03:28:19;;;;;;;24.73;14.05;;;;;;;5.73;100.00;67412.03;6062724;23;20110;-86
2022/04/29 03:30:45;;;;;;;22.90;13.82;;;;;;;5.68;100.00;67411.09;6035484;23;20106;-85
2022/04/29 03:33:11;;;;;;;27.13;15.00;;;;;;;5.66;100.00;67409.94;6058662;23;20029;-86
2022/04/29 03:35:55;;;;;;;27.13;15.27;;;;;;;5.71;100.00;67414.47;6058920;23;20550;-86
2022/04/29 03:38:20;;;;;;;25.23;14.95;;;;;;;5.66;100.00;67409.38;6059866;23;20021;-87
2022/04/29 03:40:46;;;;;;;22.83;14.00;;;;;;;5.66;100.00;67404.66;6059768;23;20023;-85
2022/04/29 03:43:14;;;;;;;30.95;14.60;;;;;;;5.70;100.00;67411.28;6033778;23;20022;-86
2022/04/29 03:45:40;;;;;;;26.60;15.60;;;;;;;5.57;100.00;67399.78;6035762;23;20350;-86
2022/04/29 03:48:05;;;;;;;31.02;16.45;;;;;;;5.49;100.00;67385.47;6061624;23;20015;-85
2022/04/29 03:50:31;;;;;;;27.00;16.33;;;;;;;5.54;100.00;67398.47;6036061;23;20030;-86
2022/04/29 03:53:01;;;;;;;30.05;17.40;;;;;;;5.53;100.00;67392.63;6058775;23;20023;-85
2022/04/29 03:55:29;;;;;;;24.23;15.15;;;;;;;5.63;100.00;67403.34;6060424;23;20661;-86
2022/04/29 03:57:56;;;;;;;28.23;16.80;;;;;;;5.58;100.00;67397.69;6064289;23;20516;-86
2022/04/29 04:00:23;;;;;;;29.20;16.52;;;;;;;5.59;100.00;67399.41;6062130;23;20093;-86
2022/04/29 04:02:49;;;;;;;25.27;15.35;;;;;;;5.57;100.00;67397.13;6062783;23;20086;-85
2022/04/29 04:05:15;;;;;;;22.92;15.68;;;;;;;5.60;100.00;67402.59;6063622;23;20019;-85
2022/04/29 04:07:41;;;;;;;29.42;16.17;;;;;;;5.53;100.00;67392.06;6061322;23;20025;-85
2022/04/29 04:10:07;;;;;;;28.95;16.90;;;;;;;5.52;100.00;67388.28;6060771;23;20019;-84
2022/04/29 04:12:50;;;;;;;29.13;17.23;;;;;;;5.55;100.00;67394.31;6058560;23;20368;-86
2022/04/29 04:15:18;;;;;;;31.98;16.38;;;;;;;5.56;100.00;67396.00;6058711;23;20015;-86
2022/04/29 04:17:45;;;;;;;29.35;15.68;;;;;;;5.53;100.00;67392.63;6033197;23;20018;-86
2022/04/29 04:20:12;;;;;;;33.40;16.65;;;;;;;5.52;100.00;67388.28;6060296;23;20011;-86
2022/04/29 04:22:38;;;;;;;28.17;16.23;;;;;;;5.47;100.00;67383.22;6057108;23;20960;-86
2022/04/29 04:25:06;;;;;;;28.05;15.43;;;;;;;5.49;100.00;67385.47;6035229;23;20051;-86
2022/04/29 04:27:32;;;;;;;31.20;15.27;;;;;;;5.50;100.00;67391.88;6032566;23;20020;-87
2022/04/29 04:29:58;;;;;;;26.98;16.55;;;;;;;5.54;100.00;67396.38;6034126;23;20101;-89
2022/04/29 04:32:24;;;;;;;25.02;15.63;;;;;;;5.55;100.00;67392.25;6032723;23;20019;-88
2022/04/29 04:34:50;;;;;;;28.23;14.07;;;;;;;5.56;100.00;67398.09;6041849;23;20019;-88
2022/04/29 04:37:20;;;;;;;30.60;15.75;;;;;;;5.59;100.00;67402.03;6058921;23;20019;-87
2022/04/29 04:39:46;;;;;;;28.60;15.20;;;;;;;5.59;100.00;67399.41;6057304;23;20019;-87
2022/04/29 04:42:12;;;;;;;29.48;17.67;;;;;;;5.53;100.00;67395.28;6034802;23;20030;-87
2022/04/29 04:44:37;;;;;;;26.02;14.55;;;;;;;5.58;100.00;67400.94;6034000;23;20022;-87
2022/04/29 04:47:03;;;;;;;27.73;13.68;;;;;;;5.59;100.00;67396.75;6057557;23;20094;-86
2022/04/29 04:49:29;;;;;;;27.05;16.85;;;;;;;5.56;100.00;67398.66;6033375;23;20098;-87
2022/04/29 04:51:54;;;;;;;27.58;15.38;;;;;;;;;;6033096;23;20578;-86
2022/04/29 04:54:19;;;;;;;27.98;15.38;;;;;;;5.64;100.00;67402.41;6037712;23;20085;-87
2022/04/29 04:56:45;;;;;;;25.23;16.40;;;;;;;5.65;100.00;67405.63;6060609;23;20571;-87
2022/04/29 04:59:10;;;;;;;25.67;14.93;;;;;;;5.76;100.00;67420.13;6060365;23;20022;-88
2022/04/29 05:01:36;;;;;;;26.35;15.48;;;;;;;5.75;100.00;67414.28;6062064;23;20019;-89
2022/04/29 05:04:04;;;;;;;31.25;16.60;;;;;;;5.73;100.00;67416.75;6037748;23;20023;-89
2022/04/29 05:06:30;;;;;;;27.05;15.45;;;;;;;5.82;100.00;67424.28;6057368;23;20034;-89
2022/04/29 05:08:55;;;;;;;25.15;15.88;;;;;;;5.88;100.00;67428.41;6036208;23;20468;-88
2022/04/29 05:11:20;;;;;;;26.88;15.35;;;;;;;5.93;100.00;67434.09;6060036;23;20043;-89
2022/04/29 05:13:47;;;;;;;31.52;15.15;;;;;;;5.93;100.00;67433.47;6035012;23;20015;-89
2022/04/29 05:16:13;;;;;;;29.50;15.50;;;;;;;5.98;100.00;67439.72;6058735;23;20082;-89
2022/04/29 05:18:39;;;;;;;26.45;16.48;;;;;;;5.93;100.00;67436.13;6034134;23;20102;-89
2022/04/29 05:21:05;;;;;;;27.65;16.23;;;;;;;5.96;100.00;67439.56;6037517;23;20044;-89
2022/04/29 05:23:30;;;;;;;27.88;14.57;;;;;;;6.00;100.00;67446.72;6061442;23;20014;-90
2022/04/29 05:25:56;;;;;;;25.05;14.95;;;;;;;6.08;100.00;67453.69;6039192;23;20046;-89
2022/04/29 05:28:21;;;;;;;24.90;15.50;;;;;;;6.17;100.00;67465.38;6037653;23;20334;-89
2022/04/29 05:30:48;;;;;;;28.05;16.48;;;;;;;6.06;100.00;67448.78;6033410;23;20649;-91
2022/04/29 05:33:13;;;;;;;29.08;16.33;;;;;;;6.09;100.00;67454.81;6062678;23;20022;-90
2022/04/29 05:35:40;;;;;;;26.48;16.05;;;;;;;6.16;100.00;67458.94;6038095;23;20034;-90
2022/04/29 05:38:05;;;;;;;29.45;16.00;;;;;;;6.15;100.00;67460.47;6065511;23;20022;-90
2022/04/29 05:43:15;;;;;;;25.35;15.50;;;;;;;6.15;100.00;67458.38;6066657;23;20074;-89
2022/04/29 05:45:41;;;;;;;28.52;16.42;;;;;;;6.25;100.00;67469.69;6062939;23;20030;-89
2022/04/29 05:48:07;;;;;;;24.67;14.82;;;;;;;6.32;100.00;67477.03;6040372;23;20022;-90
2022/04/29 05:50:32;;;;;;;28.95;16.08;;;;;;;6.30;100.00;67474.78;6038217;23;20029;-88
2022/04/29 05:52:58;;;;;;;35.70;15.70;;;;;;;;;;6040295;23;20019;-88
2022/04/29 05:55:23;;;;;;;29.67;16.25;;;;;;;6.43;100.00;67492.13;6040871;23;20453;-88
2022/04/29 05:57:48;;;;;;;30.02;16.52;;;;;;;6.45;100.00;67491.75;6041592;23;20041;-88
2022/04/29 06:00:15;;;;;;;28.67;15.45;;;;;;;6.45;100.00;67494.38;6043127;23;20129;-89
2022/04/29 06:02:40;;;;;;;25.30;15.48;;;;;;;6.55;100.00;67503.03;6062473;23;20026;-88
2022/04/29 06:05:06;;;;;;;29.75;15.75;;;;;;;6.54;100.00;67501.34;6039786;23;20019;-88
2022/04/29 06:07:32;;;;;;;28.23;14.90;;;;;;;6.61;100.00;67514.00;6065725;23;20023;-88
2022/04/29 06:09:57;;;;;;;30.75;14.88;;;;;;;6.74;100.00;67523.41;6042130;23;20029;-88
2022/04/29 06:12:23;;;;;;;27.10;14.70;;;;;;;6.82;100.00;67534.53;6038822;23;20098;-88
2022/04/29 06:14:48;;;;;;;27.75;15.63;;;;;;;6.90;100.00;67546.78;6062837;23;20019;-88
2022/04/29 06:17:14;;;;;;;28.10;15.32;;;;;;;6.88;100.00;67541.34;6039752;23;20342;-88
2022/04/29 06:19:40;;;;;;;27.08;15.43;;;;;;;6.88;100.00;67539.25;6037890;23;20484;-88
2022/04/29 06:22:05;;;;;;;29.80;16.65;;;;;;;6.90;100.00;67546.22;6037847;23;20023;-88
2022/04/29 06:24:32;;;;;;;28.55;15.60;;;;;;;6.89;100.00;67542.47;6061315;23;20023;-88
2022/04/29 06:26:57;;;;;;;26.08;14.90;;;;;;;6.95;100.00;67546.59;6063859;23;20023;-88
2022/04/29 06:29:23;;;;;;;27.83;16.60;;;;;;;7.08;100.00;67568.69;6039603;23;20019;-88
2022/04/29 06:31:48;;;;;;;25.35;15.05;;;;;;;7.08;100.00;67563.38;6060063;23;20360;-88
2022/04/29 06:34:13;;;;;;;27.30;15.07;;;;;;;7.19;99.98;67576.41;6065857;23;20107;-88
2022/04/29 06:36:39;;;;;;;22.45;14.70;;;;;;;7.22;99.63;67576.56;6041129;23;20479;-88
2022/04/29 06:39:04;;;;;;;28.15;14.20;;;;;;;7.22;99.49;67582.47;6041073;23;20015;-88
2022/04/29 06:41:30;;;;;;;22.98;13.48;;;;;;;7.22;99.07;67581.88;6038776;23;20091;-88
2022/04/29 06:43:55;;;;;;;27.33;15.32;;;;;;;7.22;99.57;67576.56;6037807;23;20038;-88
2022/04/29 06:46:24;;;;;;;23.85;15.05;;;;;;;7.21;99.60;67575.44;6066073;23;20448;-88
2022/04/29 06:48:49;;;;;;;25.50;13.93;;;;;;;;;;6057147;23;20051;-88
2022/04/29 06:51:15;;;;;;;25.25;14.88;;;;;;;7.30;98.62;67585.06;6087495;23;20023;-88
2022/04/29 06:53:40;;;;;;;23.23;14.32;;;;;;;7.34;98.88;67592.81;6067798;23;20031;-88
2022/04/29 06:56:06;;;;;;;26.88;14.45;;;;;;;7.39;98.77;67595.84;6067094;23;20019;-88
2022/04/29 06:58:32;;;;;;;26.23;15.68;;;;;;;7.38;98.87;67596.78;6039472;23;20067;-88
2022/04/29 07:00:57;;;;;;;28.42;14.13;;;;;;;7.44;98.32;67600.91;6042641;23;20086;-88
2022/04/29 07:03:23;;;;;;;23.60;14.65;;;;;;;7.40;98.67;67596.97;6063011;23;20023;-89
2022/04/29 07:05:50;;;;;;;26.90;16.05;;;;;;;7.46;98.07;67609.03;6041625;23;20050;-88
2022/04/29 07:08:16;;;;;;;29.10;15.10;;;;;;;7.48;98.40;67610.75;6067526;23;20019;-88
2022/04/29 07:10:41;;;;;;;25.65;15.30;;;;;;;;;;6063663;23;29524;-88
2022/04/29 07:13:07;;;;;;;22.52;14.35;;;;;;;;;;6044694;23;20050;-88
2022/04/29 07:15:32;;;;;;;29.10;15.25;;;;;;;7.52;98.40;67609.97;6066006;23;20015;-88
2022/04/29 07:17:58;;;;;;;22.48;14.55;;;;;;;7.59;98.30;67617.88;6060773;23;20019;-87
2022/04/29 07:20:23;;;;;;;24.52;14.35;;;;;;;7.62;97.86;67626.03;6081015;23;20026;-88
2022/04/29 07:22:49;;;;;;;23.27;14.15;;;;;;;7.59;98.13;67620.53;6057251;23;20014;-88
2022/04/29 07:25:14;;;;;;;28.45;14.50;;;;;;;;;;6057363;23;20023;-88
2022/04/29 07:27:40;;;;;;;24.10;13.48;;;;;;;7.77;97.96;67637.13;6042366;23;20023;-88
2022/04/29 07:30:08;;;;;;;26.67;13.50;;;;;;;7.84;97.61;67645.63;6069480;23;20074;-88
2022/04/29 07:32:33;;;;;;;21.77;13.77;;;;;;;7.91;97.58;67653.56;6037591;23;20097;-88
2022/04/29 07:43:12;;;;;;;22.25;12.15;;;;;;;8.09;96.16;67672.81;6067755;23;20713;-88
2022/04/29 07:45:38;;;;;;;21.25;12.73;;;;;;;8.16;96.07;67682.81;6065268;23;20022;-87
2022/04/29 07:48:06;;;;;;;21.60;12.20;;;;;;;8.24;96.01;67692.44;6041342;23;20042;-88
2022/04/29 07:50:35;;;;;;;20.45;12.52;;;;;;;8.28;95.54;67689.00;6065828;23;20398;-88
2022/04/29 07:53:02;;;;;;;21.48;11.57;;;;;;;8.32;95.29;67703.59;6041492;23;20103;-88
2022/04/29 07:55:27;;;;;;;20.80;11.40;;;;;;;;;;6064630;23;20045;-88
2022/04/29 07:57:57;;;;;;;19.63;12.27;;;;;;;8.45;94.83;67713.03;6037062;23;20022;-88
2022/04/29 08:00:23;;;;;;;22.25;11.43;;;;;;;8.49;93.75;67720.22;6065842;23;20114;-88
2022/04/29 08:02:48;;;;;;;17.00;11.38;;;;;;;8.44;93.87;67711.34;6039395;23;20019;-88
2022/04/29 08:05:13;;;;;;;17.83;11.40;;;;;;;8.52;92.14;67726.28;6067487;23;20019;-88
2022/04/29 08:07:39;;;;;;;20.67;10.98;;;;;;;;;;6038816;23;20027;-88
2022/04/29 08:10:05;;;;;;;20.60;11.40;;;;;;;8.68;92.49;67741.19;6041515;23;20361;-88
2022/04/29 08:12:30;;;;;;;19.52;11.68;;;;;;;8.71;91.43;67741.94;6065718;23;20039;-88
2022/04/29 08:14:59;;;;;;;19.38;10.68;;;;;;;8.74;91.24;67745.31;6041654;23;20019;-87
2022/04/29 08:17:25;;;;;;;19.75;10.48;;;;;;;;;;6058340;23;20023;-87
2022/04/29 08:19:51;;;;;;;18.05;10.57;;;;;;;8.96;91.13;67772.34;6034597;23;20041;-86
2022/04/29 08:22:17;;;;;;;16.88;10.13;;;;;;;9.11;91.17;67785.56;6036247;23;20026;-86
2022/04/29 08:24:43;;;;;;;19.40;10.35;;;;;;;9.19;90.57;67797.28;6035397;23;20014;-86
2022/04/29 08:27:10;;;;;;;17.42;9.57;;;;;;;9.28;90.66;67804.81;6058996;23;20337;-86
2022/04/29 08:29:36;;;;;;;24.02;11.20;;;;;;;9.44;89.52;67825.06;6035339;23;20015;-87
2022/04/29 08:32:04;;;;;;;17.13;9.48;;;;;;;;;;6036352;23;20026;-87
2022/04/29 08:34:29;;;;;;;16.25;9.88;;;;;;;9.48;87.44;67832.25;6035304;23;20457;-87
2022/04/29 08:36:54;;;;;;;16.58;9.55;;;;;;;9.72;87.14;67848.25;6033806;23;20105;-87
2022/04/29 08:39:20;;;;;;;16.63;9.02;;;;;;;9.83;86.17;67866.06;6035181;23;20026;-87
2022/04/29 08:41:45;;;;;;;19.10;10.40;;;;;;;9.86;86.12;67869.47;6034976;23;20015;-86
2022/04/29 08:44:10;;;;;;;17.80;9.90;;;;;;;;;;6036166;23;20051;-86
2022/04/29 08:46:39;;;;;;;19.13;10.18;;;;;;;9.97;85.79;67881.38;6037748;23;20046;-86
2022/04/29 08:49:06;;;;;;;17.92;10.70;;;;;;;10.06;84.28;67891.56;6038547;23;20048;-86
2022/04/29 08:51:34;;;;;;;17.23;10.02;;;;;;;10.01;84.03;67880.59;6059006;23;20023;-86
2022/04/29 08:54:01;;;;;;;17.08;9.07;;;;;;;;;;6061340;23;20033;-86
2022/04/29 08:59:12;;;;;;;13.80;8.70;;;;;;;10.49;83.40;67939.25;6063934;23;20050;-87
2022/04/29 09:01:40;;;;;;;18.17;10.73;;;;;;;;;;6039011;23;20022;-87
2022/04/29 09:04:06;;;;;;;17.85;9.82;;;;;;;10.44;82.48;67933.00;6061611;23;20030;-86
2022/04/29 09:06:32;;;;;;;15.55;9.55;;;;;;;10.41;81.26;67930.16;6035656;23;20108;-86
2022/04/29 09:09:06;;;;;;;14.20;10.68;;;;;;;;;;6063251;23;20039;-86
2022/04/29 09:11:32;;;;;;;17.25;10.00;;;;;;;10.52;81.21;67937.31;6062332;23;20023;-86
2022/04/29 09:13:57;;;;;;;20.02;9.52;;;;;;;10.44;81.58;67933.56;6063177;23;20074;-86
2022/04/29 09:16:22;;;;;;;16.27;10.05;;;;;;;;;;6063019;23;20022;-86
2022/04/29 09:18:53;;;;;;;15.10;9.05;;;;;;;10.49;80.50;67939.25;6037024;23;20015;-86
2022/04/29 09:21:20;;;;;;;14.43;9.15;;;;;;;10.58;80.59;67949.47;6062745;23;20023;-87
2022/04/29 09:23:55;;;;;;;15.02;10.25;;;;;;;10.70;80.25;67956.63;6035914;23;20018;-87
2022/04/29 09:26:38;;;;;;;12.43;7.95;;;;;;;10.95;79.12;67989.75;6038268;23;20397;-87
2022/04/29 09:29:11;;;;;;;15.50;9.20;;;;;;;10.88;77.37;67981.81;6014071;23;20041;-86
2022/04/29 09:31:58;;;;;;;13.30;8.05;;;;;;;11.01;76.95;67996.56;6061934;23;20038;-87
2022/04/29 09:34:42;;;;;;;14.00;7.97;;;;;;;11.25;76.67;68017.94;6037967;23;20539;-86
2022/04/29 09:37:15;;;;;;;14.00;9.48;;;;;;;11.29;76.50;68027.78;5973276;23;20042;-87
2022/04/29 09:39:53;;;;;;;13.32;9.20;;;;;;;11.17;75.84;68014.16;6061074;23;20027;-86
2022/04/29 09:42:19;;;;;;;15.13;8.63;;;;;;;11.40;74.75;68039.72;6037467;23;20692;-86
2022/04/29 09:44:45;;;;;;;14.02;9.25;;;;;;;11.41;73.98;68035.53;6037172;23;20017;-86
2022/04/29 09:47:19;;;;;;;12.32;8.77;;;;;;;11.57;74.82;68061.69;6038092;23;20393;-86
2022/04/29 09:49:54;;;;;;;13.68;9.13;;;;;;;;;;6063463;23;20464;-86
2022/04/29 09:52:20;;;;;;;16.38;10.13;;;;;;;11.49;72.68;68050.50;6036687;23;20449;-86
2022/04/29 09:54:45;;;;;;;14.85;9.70;;;;;;;11.47;72.44;68042.91;6025566;23;20033;-86
2022/04/29 09:57:16;;;;;;;15.25;8.32;;;;;;;11.93;69.61;68098.78;6037491;23;20027;-87
2022/04/29 09:59:42;;;;;;;13.85;8.80;;;;;;;;;;6064309;23;20099;-87
2022/04/29 10:02:10;;;;;;;15.93;9.20;;;;;;;12.04;70.31;68110.72;6065252;23;20019;-87
2022/04/29 10:04:37;;;;;;;16.38;9.60;;;;;;;;;;6064923;23;20627;-87
2022/04/29 10:07:03;;;;;;;16.38;10.55;;;;;;;;;;6039282;23;20492;-86
2022/04/29 10:09:32;;;;;;;13.82;9.38;;;;;;;12.37;67.59;68148.25;6038813;23;20357;-86
2022/04/29 10:12:04;;;;;;;13.07;9.20;;;;;;;12.53;67.03;68165.28;6062131;23;20457;-86
2022/04/29 10:14:31;;;;;;;16.67;11.40;;;;;;;;;;6039791;23;20027;-86
2022/04/29 10:22:40;;;;;;;15.50;10.70;;;;;;;;;;6076338;23;20475;-85
2022/04/29 10:25:10;;;;;;;14.98;10.95;;;;;;;12.67;67.38;68181.19;6085265;23;20019;-86
2022/04/29 10:27:37;;;;;;;16.50;10.63;;;;;;;;;;6047633;23;20026;-86
2022/04/29 10:30:03;;;;;;;16.13;11.43;;;;;;;12.53;67.98;68165.84;6063734;23;20453;-86
2022/04/29 10:32:28;;;;;;;16.45;10.23;;;;;;;;;;6062659;23;20072;-86
2022/04/29 10:34:55;;;;;;;13.55;9.23;;;;;;;;;;6037368;23;20097;-87
2022/04/29 10:37:32;;;;;;;14.60;9.45;;;;;;;12.46;67.42;68157.31;6061208;23;20047;-86
2022/04/29 10:40:10;;;;;;;15.63;9.05;;;;;;;12.46;67.53;68157.91;6015982;23;20030;-87
2022/04/29 10:42:54;;;;;;;15.10;9.77;;;;;;;;;;6063404;23;20019;-86
2022/04/29 10:45:19;;;;;;;13.68;9.70;;;;;;;;;;6061886;23;20025;-86
2022/04/29 10:47:48;;;;;;;13.43;9.23;;;;;;;;;;6062693;23;20042;-86
2022/04/29 10:50:29;;;;;;;14.63;9.75;;;;;;;12.77;67.73;68192.56;6062444;23;20051;-87
2022/04/29 10:53:05;;;;;;;13.98;9.82;;;;;;;12.97;67.05;68214.16;6036877;23;20022;-86
2022/04/29 10:55:31;;;;;;;14.73;9.48;;;;;;;;;;6062636;23;20027;-86
2022/04/29 10:58:01;;;;;;;13.63;8.63;;;;;;;13.24;65.23;68239.53;6038145;23;20536;-86
2022/04/29 11:00:28;;;;;;;14.43;8.77;;;;;;;13.23;66.53;68245.81;6036509;23;20041;-87
2022/04/29 11:02:54;;;;;;;18.30;9.55;;;;;;;13.32;68.08;68253.41;6037924;23;20098;-86
2022/04/29 11:05:37;;;;;;;12.93;9.07;;;;;;;13.43;66.53;68265.91;6063718;23;20018;-86
2022/04/29 11:08:10;;;;;;;14.43;8.88;;;;;;;13.41;64.90;68265.78;5989016;23;20722;-86
2022/04/29 11:11:11;;;;;;;14.85;9.70;;;;;;;13.34;66.58;68255.13;6058426;23;20520;-86
2022/04/29 11:13:42;;;;;;;15.57;9.48;;;;;;;13.37;67.46;68258.53;5922912;24;20024;-86
2022/04/29 11:16:12;;;;;;;15.45;9.93;;;;;;;13.47;66.35;68269.91;6042634;23;20346;-86
2022/04/29 11:18:37;;;;;;;;;;;;;;;13.54;64.89;68278.44;6035974;23;20093;-86
2022/04/29 11:26:45;;;;;;;15.88;9.10;;;;;;;13.58;65.30;68277.09;6062209;23;20070;-86
2022/04/29 11:29:11;;;;;;;15.95;9.27;;;;;;;;;;6062210;23;20026;-86
2022/04/29 11:31:36;;;;;;;13.57;9.27;;;;;;;13.79;64.99;68299.84;6060947;23;20023;-87
2022/04/29 11:34:13;;;;;;;12.32;10.23;;;;;;;13.67;63.57;68294.78;6035335;23;20023;-86
2022/04/29 11:36:39;;;;;;;15.90;9.27;;;;;;;13.75;63.80;68304.44;6058667;23;20025;-86
2022/04/29 11:39:16;;;;;;;15.80;10.40;;;;;;;13.57;64.17;68275.94;6037504;23;20062;-86
2022/04/29 11:41:58;;;;;;;14.00;9.40;;;;;;;13.68;62.54;68287.88;6060545;23;20349;-86
2022/04/29 11:44:38;;;;;;;13.45;9.07;;;;;;;13.68;61.29;68288.44;6049568;23;20397;-86
2022/04/29 11:47:04;;;;;;;17.60;10.05;;;;;;;13.56;63.98;68280.16;6010981;23;20090;-86
2022/04/29 11:49:34;;;;;;;14.02;10.18;;;;;;;13.57;62.07;68275.94;6060906;23;20015;-86
2022/04/29 11:52:32;;;;;;;12.02;9.25;;;;;;;13.57;62.52;68280.72;6062101;23;20019;-86
2022/04/29 11:54:57;;;;;;;11.52;8.30;;;;;;;;;;6061942;23;20098;-85
2022/04/29 11:57:24;;;;;;;15.07;9.85;;;;;;;13.85;60.62;68312.00;6062722;23;20067;-85
2022/04/29 11:59:50;;;;;;;14.57;8.60;;;;;;;14.01;61.70;68330.19;6063100;23;20449;-86
2022/04/29 12:02:23;;;;;;;15.20;8.45;;;;;;;13.98;61.09;68321.44;6062983;23;20022;-85
2022/04/29 12:05:01;;;;;;;10.93;8.07;;;;;;;;;;6036684;23;20089;-87
2022/04/29 12:07:29;;;;;;;14.57;7.43;;;;;;;14.33;61.11;68357.47;6062122;23;20619;-86
2022/04/29 12:09:54;;;;;;;10.13;7.50;;;;;;;;;;6059784;23;20074;-86
2022/04/29 12:12:28;;;;;;;11.50;8.40;;;;;;;14.37;59.66;68364.69;6036679;23;20018;-86